createdAt,value
2023-01-13T00:01:47.755Z,27.20
2023-01-13T00:04:18.186Z,27.20
2023-01-13T00:06:47.659Z,27.20
2023-01-13T00:09:17.401Z,27.30
2023-01-13T00:11:46.775Z,27.40
2023-01-13T00:14:16.113Z,27.60
2023-01-13T00:16:45.501Z,27.60
2023-01-13T00:19:14.818Z,27.80
2023-01-13T00:21:44.999Z,27.80
2023-01-13T00:24:14.333Z,27.90
2023-01-13T00:26:43.646Z,28.00
2023-01-13T00:29:13.082Z,28.20
2023-01-13T00:31:42.452Z,28.30
2023-01-13T00:34:11.867Z,28.40
2023-01-13T00:36:41.331Z,28.50
2023-01-13T00:39:10.760Z,28.60
2023-01-13T00:41:58.416Z,28.50
2023-01-13T00:44:27.754Z,28.50
2023-01-13T00:46:57.145Z,28.60
2023-01-13T00:49:26.659Z,28.80
2023-01-13T00:51:56.021Z,28.90
2023-01-13T00:54:25.427Z,29.00
2023-01-13T00:56:55.364Z,29.10
2023-01-13T00:59:24.896Z,29.10
2023-01-13T01:01:54.486Z,29.30
2023-01-13T01:04:24.405Z,29.40
2023-01-13T01:06:53.803Z,29.40
2023-01-13T01:09:23.192Z,29.50
2023-01-13T01:11:52.691Z,29.70
2023-01-13T01:14:22.085Z,29.70
2023-01-13T01:16:51.431Z,29.70
2023-01-13T01:19:20.913Z,29.70
2023-01-13T01:21:50.352Z,29.70
2023-01-13T01:24:20.172Z,29.90
2023-01-13T01:26:49.693Z,30.00
2023-01-13T01:29:20.008Z,30.10
2023-01-13T01:31:49.401Z,30.20
2023-01-13T01:34:18.826Z,30.30
2023-01-13T01:36:48.173Z,30.40
2023-01-13T01:39:17.543Z,30.30
2023-01-13T01:42:06.734Z,30.40
2023-01-13T01:44:45.200Z,30.50
2023-01-13T01:47:17.571Z,30.60
2023-01-13T01:49:48.114Z,30.70
2023-01-13T01:52:21.993Z,30.70
2023-01-13T01:54:54.367Z,30.80
2023-01-13T01:57:32.985Z,30.70
2023-01-13T02:00:02.621Z,30.70
2023-01-13T02:02:32.591Z,31.00
2023-01-13T02:05:03.301Z,31.20
2023-01-13T02:07:33.810Z,31.20
2023-01-13T02:10:08.447Z,31.20
2023-01-13T02:12:38.573Z,31.00
2023-01-13T02:15:12.599Z,31.20
2023-01-13T02:17:47.746Z,31.30
2023-01-13T02:20:29.404Z,31.50
2023-01-13T02:23:31.031Z,31.60
2023-01-13T02:26:03.424Z,31.70
2023-01-13T02:29:03.066Z,31.70
2023-01-13T02:31:45.915Z,31.80
2023-01-13T02:34:15.277Z,31.90
2023-01-13T02:37:07.645Z,31.80
2023-01-13T02:39:47.137Z,31.80
2023-01-13T02:42:38.753Z,31.80
2023-01-13T02:45:18.004Z,31.80
2023-01-13T02:47:51.812Z,32.00
2023-01-13T02:50:23.735Z,32.10
2023-01-13T02:53:00.751Z,32.20
2023-01-13T02:55:49.210Z,32.30
2023-01-13T02:58:20.199Z,32.40
2023-01-13T03:00:50.684Z,32.40
2023-01-13T03:03:20.074Z,32.30
2023-01-13T03:05:51.149Z,32.40
2023-01-13T03:08:49.523Z,32.70
2023-01-13T03:11:20.768Z,32.90
2023-01-13T03:13:50.334Z,33.10
2023-01-13T03:16:34.833Z,32.90
2023-01-13T03:19:16.074Z,33.00
2023-01-13T03:21:52.532Z,33.20
2023-01-13T03:24:30.281Z,33.30
2023-01-13T03:27:04.434Z,33.30
2023-01-13T03:29:42.163Z,33.40
2023-01-13T03:32:32.595Z,33.50
2023-01-13T03:35:11.011Z,33.50
2023-01-13T03:37:47.166Z,33.00
2023-01-13T03:40:22.005Z,33.20
2023-01-13T03:43:13.539Z,33.40
2023-01-13T03:45:43.450Z,33.50
2023-01-13T03:48:15.501Z,33.70
2023-01-13T03:50:54.724Z,33.70
2023-01-13T03:53:33.102Z,33.60
2023-01-13T03:56:10.157Z,33.70
2023-01-13T03:58:45.541Z,33.80
2023-01-13T04:01:18.486Z,34.00
2023-01-13T04:03:54.215Z,34.00
2023-01-13T04:06:41.793Z,34.10
2023-01-13T04:09:20.792Z,34.20
2023-01-13T04:11:54.314Z,34.30
2023-01-13T04:14:25.469Z,34.40
2023-01-13T04:16:54.945Z,34.50
2023-01-13T04:19:24.357Z,34.60
2023-01-13T04:21:53.725Z,34.60
2023-01-13T04:24:23.216Z,34.50
2023-01-13T04:26:52.597Z,34.40
2023-01-13T04:29:21.976Z,34.00
2023-01-13T04:31:51.455Z,33.70
2023-01-13T04:34:20.837Z,33.30
2023-01-13T04:36:50.217Z,33.10
2023-01-13T04:39:19.705Z,32.70
2023-01-13T04:42:00.919Z,32.50
2023-01-13T04:44:32.070Z,32.20
2023-01-13T06:17:16.097Z,29.30
2023-01-13T06:19:45.451Z,29.20
2023-01-13T06:22:25.594Z,29.20
2023-01-13T06:24:56.049Z,29.20
2023-01-13T06:27:25.616Z,29.20
2023-01-13T06:29:55.456Z,29.20
2023-01-13T06:32:28.993Z,29.20
2023-01-13T06:35:05.397Z,29.20
2023-01-13T06:37:35.956Z,29.20
2023-01-13T06:40:09.157Z,29.20
2023-01-13T06:42:57.668Z,29.20
2023-01-13T06:45:28.720Z,29.20
2023-01-13T06:48:00.524Z,29.10
2023-01-13T06:50:30.560Z,29.10
2023-01-13T06:53:01.070Z,29.10
2023-01-13T06:55:30.683Z,29.20
2023-01-13T06:58:00.379Z,29.20
2023-01-13T07:00:29.795Z,29.20
2023-01-13T07:03:07.580Z,29.30
2023-01-13T07:05:37.443Z,29.50
2023-01-13T07:08:07.111Z,29.60
2023-01-13T07:10:37.431Z,29.70
2023-01-13T07:13:25.592Z,29.80
2023-01-13T08:13:47.861Z,29.00
2023-01-13T08:16:17.362Z,28.80
2023-01-13T08:18:46.855Z,28.70
2023-01-13T08:21:16.842Z,28.60
2023-01-13T08:23:47.486Z,28.50
2023-01-13T08:26:19.326Z,28.30
2023-01-13T08:28:48.769Z,28.20
2023-01-13T08:31:18.840Z,28.10
2023-01-13T08:33:48.584Z,28.00
2023-01-13T08:36:19.977Z,27.90
2023-01-13T08:38:49.419Z,27.80
2023-01-13T08:41:42.137Z,27.70
2023-01-13T08:44:11.935Z,27.60
2023-01-13T08:46:41.423Z,27.50
2023-01-13T08:49:10.904Z,27.40
2023-01-13T08:51:42.080Z,27.30
2023-01-13T08:54:11.489Z,27.20
2023-01-13T08:56:41.055Z,27.20
2023-01-13T08:59:20.837Z,27.10
2023-01-13T09:01:51.411Z,27.00
2023-01-13T09:04:23.108Z,26.90
2023-01-13T09:06:54.117Z,26.90
2023-01-13T09:09:24.145Z,26.80
2023-01-13T09:12:11.613Z,26.70
2023-01-13T09:14:41.820Z,26.60
2023-01-13T09:17:11.734Z,26.40
2023-01-13T09:19:41.485Z,26.30
2023-01-13T09:22:12.768Z,26.20
2023-01-13T09:24:42.094Z,26.20
2023-01-13T09:27:12.841Z,26.10
2023-01-13T09:29:42.263Z,26.00
2023-01-13T09:32:15.336Z,26.00
2023-01-13T09:35:03.214Z,26.00
2023-01-13T09:37:35.840Z,25.80
2023-01-13T09:40:06.565Z,25.80
2023-01-13T09:43:11.441Z,25.80
2023-01-13T09:45:44.196Z,25.70
2023-01-13T09:48:35.458Z,25.70
2023-01-13T09:51:08.289Z,25.60
2023-01-13T09:53:50.552Z,25.50
2023-01-13T09:56:21.064Z,25.50
2023-01-13T09:58:50.792Z,25.40
2023-01-13T10:01:26.819Z,25.30
2023-01-13T10:03:56.409Z,25.20
2023-01-13T10:06:40.547Z,25.20
2023-01-13T10:09:23.586Z,25.10
2023-01-13T10:12:12.217Z,25.10
2023-01-13T10:14:48.937Z,25.00
2023-01-13T10:17:21.440Z,24.90
2023-01-13T10:20:26.952Z,24.80
2023-01-13T10:23:14.273Z,24.80
2023-01-13T10:25:51.870Z,24.70
2023-01-13T10:28:25.814Z,24.70
2023-01-13T10:30:55.344Z,24.60
2023-01-13T10:33:31.483Z,24.50
2023-01-13T10:36:01.388Z,24.50
2023-01-13T10:38:33.956Z,24.40
2023-01-13T10:41:05.067Z,24.40
2023-01-13T10:43:37.522Z,24.30
2023-01-13T10:46:19.089Z,24.20
2023-01-13T10:48:59.842Z,24.20
2023-01-13T10:51:31.062Z,24.10
2023-01-13T10:54:06.182Z,24.10
2023-01-13T10:56:36.781Z,24.00
2023-01-13T10:59:22.335Z,24.00
2023-01-13T11:02:24.330Z,23.90
2023-01-13T11:04:59.988Z,23.90
2023-01-13T11:07:32.694Z,23.80
2023-01-13T11:10:09.055Z,23.70
2023-01-13T11:12:46.196Z,23.70
2023-01-13T11:15:20.058Z,23.70
2023-01-13T11:18:05.429Z,23.70
2023-01-13T11:20:35.381Z,23.60
2023-01-13T11:23:16.919Z,23.50
2023-01-13T11:25:49.115Z,23.50
2023-01-13T11:28:27.665Z,23.50
2023-01-13T11:30:57.167Z,23.50
2023-01-13T11:33:58.854Z,23.40
2023-01-13T11:36:33.233Z,23.40
2023-01-13T11:39:15.649Z,23.30
2023-01-13T11:42:14.270Z,23.30
2023-01-13T11:44:46.900Z,23.30
2023-01-13T11:47:16.602Z,23.30
2023-01-13T12:44:07.681Z,22.90
2023-01-13T12:46:38.043Z,22.90
2023-01-13T12:49:23.803Z,22.90
2023-01-13T12:51:54.283Z,22.90
2023-01-13T12:54:33.154Z,22.80
2023-01-13T12:57:02.663Z,22.80
2023-01-13T12:59:36.313Z,22.80
2023-01-13T13:02:17.265Z,22.80
2023-01-13T13:04:54.653Z,22.80
2023-01-13T13:07:33.180Z,22.80
2023-01-13T13:10:04.753Z,22.80
2023-01-13T13:12:54.712Z,22.80
2023-01-13T13:15:29.397Z,22.80
2023-01-13T13:18:02.044Z,22.70
2023-01-13T13:20:52.352Z,22.70
2023-01-13T13:23:41.008Z,22.70
2023-01-13T13:26:33.468Z,22.70
2023-01-13T13:29:19.207Z,22.70
2023-01-13T13:32:07.241Z,22.70
2023-01-13T13:34:46.076Z,22.70
2023-01-13T13:37:34.425Z,22.60
2023-01-13T13:40:26.549Z,22.60
2023-01-13T13:43:17.518Z,22.60
2023-01-13T13:46:12.304Z,22.60
2023-01-13T13:48:42.010Z,22.60
2023-01-13T13:51:26.659Z,22.60
2023-01-13T13:53:57.898Z,22.50
2023-01-13T13:56:30.655Z,22.50
2023-01-13T13:59:01.303Z,22.50
2023-01-13T14:01:34.084Z,22.40
2023-01-13T14:04:13.636Z,22.40
2023-01-13T14:06:57.189Z,22.40
2023-01-13T14:09:27.735Z,22.40
2023-01-13T14:12:20.223Z,22.40
2023-01-13T14:14:50.706Z,22.40
2023-01-13T14:17:27.789Z,22.40
2023-01-13T14:20:03.060Z,22.30
2023-01-13T14:22:32.524Z,22.30
2023-01-13T14:25:03.735Z,22.30
2023-01-13T14:27:35.349Z,22.30
2023-01-13T14:30:05.625Z,22.30
2023-01-13T14:32:38.677Z,22.20
2023-01-13T14:35:08.922Z,22.20
2023-01-13T14:37:43.209Z,22.20
2023-01-13T14:40:30.803Z,22.20
2023-01-13T14:43:03.523Z,22.20
2023-01-13T14:45:35.258Z,22.20
2023-01-13T14:48:10.540Z,22.20
2023-01-13T14:50:40.289Z,22.10
2023-01-13T14:53:29.653Z,22.10
2023-01-13T14:56:00.397Z,22.10
2023-01-13T14:58:30.492Z,22.10
2023-01-13T15:01:18.568Z,22.10
2023-01-13T15:03:48.474Z,22.00
2023-01-13T15:06:27.958Z,22.10
2023-01-13T15:08:57.369Z,22.00
2023-01-13T15:11:29.461Z,22.00
2023-01-13T15:14:06.124Z,22.00
2023-01-13T15:16:35.951Z,22.00
2023-01-13T15:19:07.093Z,22.00
2023-01-13T15:21:36.791Z,22.00
2023-01-13T15:24:07.343Z,21.90
2023-01-13T15:26:37.307Z,21.90
2023-01-13T15:29:06.979Z,21.80
2023-01-13T15:31:37.346Z,21.80
2023-01-13T17:16:00.391Z,21.30
2023-01-13T17:18:30.621Z,21.30
2023-01-13T17:21:01.766Z,21.30
2023-01-13T17:23:33.088Z,21.30
2023-01-13T17:26:02.479Z,21.30
2023-01-13T17:28:32.900Z,21.30
2023-01-13T17:31:02.322Z,21.20
2023-01-13T17:33:38.785Z,21.20
2023-01-13T17:36:09.396Z,21.20
2023-01-13T17:38:39.889Z,21.20
2023-01-13T17:41:09.527Z,21.20
2023-01-13T17:43:38.961Z,21.10
2023-01-13T17:46:12.322Z,21.10
2023-01-13T17:48:41.898Z,21.00
2023-01-13T17:51:13.199Z,21.10
2023-01-13T17:53:42.611Z,21.10
2023-01-13T17:56:13.318Z,21.10
2023-01-13T17:58:47.007Z,21.10
2023-01-13T18:01:18.905Z,21.10
2023-01-13T18:03:48.731Z,21.00
2023-01-13T18:06:19.235Z,21.00
2023-01-13T18:08:50.107Z,21.00
2023-01-13T18:11:23.289Z,21.00
2023-01-13T18:13:56.518Z,21.00
2023-01-13T18:26:22.251Z,21.00
2023-01-13T18:28:51.623Z,21.00
2023-01-13T18:31:21.065Z,20.90
2023-01-13T18:33:50.609Z,20.90
2023-01-13T18:36:20.046Z,20.90
2023-01-13T18:38:50.963Z,20.90
2023-01-13T18:41:38.551Z,20.90
2023-01-13T18:44:08.390Z,20.90
2023-01-13T18:46:37.938Z,20.90
2023-01-13T18:49:07.338Z,20.80
2023-01-13T18:51:37.261Z,20.80
2023-01-13T18:54:06.622Z,20.80
2023-01-13T18:56:36.027Z,20.80
2023-01-13T18:59:06.008Z,20.70
2023-01-13T19:01:36.653Z,20.70
2023-01-13T19:04:07.338Z,20.80
2023-01-13T19:06:36.732Z,20.70
2023-01-13T19:09:10.244Z,20.80
2023-01-13T19:11:39.601Z,20.70
2023-01-13T19:14:09.000Z,20.70
2023-01-13T19:16:38.454Z,20.70
2023-01-13T19:19:07.876Z,20.70
2023-01-13T19:21:37.272Z,20.60
2023-01-13T19:24:07.017Z,20.60
2023-01-13T19:26:36.389Z,20.50
2023-01-13T19:29:05.788Z,20.50
2023-01-13T19:31:35.231Z,20.50
2023-01-13T19:34:05.211Z,20.40
2023-01-13T19:36:35.056Z,20.40
2023-01-13T19:39:04.649Z,20.30
2023-01-13T19:41:53.305Z,20.40
2023-01-13T19:44:41.220Z,20.30
2023-01-13T19:47:10.585Z,20.40
2023-01-13T19:49:41.029Z,20.40
2023-01-13T19:52:10.480Z,20.40
2023-01-13T19:54:40.003Z,20.30
2023-01-13T19:57:09.549Z,20.30
2023-01-13T19:59:42.545Z,20.40
2023-01-13T20:02:29.322Z,20.30
2023-01-13T20:05:00.276Z,20.30
2023-01-13T20:07:31.282Z,20.30
2023-01-13T20:10:01.595Z,20.30
2023-01-13T20:12:31.365Z,20.30
2023-01-13T20:15:01.872Z,20.30
2023-01-13T20:17:31.685Z,20.30
2023-01-13T20:20:01.535Z,20.40
2023-01-13T20:22:31.379Z,20.40
2023-01-13T20:25:01.378Z,20.70
2023-01-13T20:27:31.383Z,20.70
2023-01-13T20:30:01.383Z,20.70
2023-01-13T20:32:30.869Z,20.60
2023-01-13T20:35:00.726Z,20.60
2023-01-13T20:37:30.873Z,20.60
2023-01-13T20:40:03.101Z,20.70
2023-01-13T20:42:35.840Z,20.70
2023-01-13T20:45:06.578Z,20.80
2023-01-13T20:47:36.118Z,20.80
2023-01-13T20:50:05.808Z,20.80
2023-01-13T20:52:35.241Z,20.80
2023-01-13T20:55:04.654Z,20.80
2023-01-13T20:57:34.065Z,20.80
2023-01-13T21:00:04.464Z,20.80
2023-01-13T21:02:34.008Z,20.80
2023-01-13T21:05:03.467Z,20.80
2023-01-13T21:07:32.913Z,20.80
2023-01-13T21:10:02.870Z,20.80
2023-01-13T21:12:50.249Z,20.80
2023-01-13T21:15:19.698Z,20.80
2023-01-13T21:18:07.985Z,20.80
2023-01-13T21:20:38.215Z,20.80
2023-01-13T21:23:08.211Z,20.80
2023-01-13T21:25:41.022Z,21.00
2023-01-13T21:28:15.301Z,21.20
2023-01-13T21:30:46.502Z,21.30
